createdAt,value
2023-09-06T00:00:47.046Z,17.00
2023-09-06T00:03:15.150Z,16.97
2023-09-06T00:05:42.955Z,16.94
2023-09-06T00:08:11.229Z,16.91
2023-09-06T00:10:39.584Z,16.89
2023-09-06T00:13:10.914Z,16.90
2023-09-06T00:15:38.019Z,16.90
2023-09-06T00:18:09.577Z,16.86
2023-09-06T00:20:37.926Z,16.91
2023-09-06T00:23:13.548Z,16.91
2023-09-06T00:25:40.121Z,16.87
2023-09-06T00:28:10.415Z,16.80
2023-09-06T00:30:37.082Z,16.80
2023-09-06T00:33:10.332Z,16.77
2023-09-06T00:35:39.257Z,16.75
2023-09-06T00:38:08.678Z,16.73
2023-09-06T00:40:41.211Z,16.70
2023-09-06T00:43:09.337Z,16.66
2023-09-06T00:45:45.191Z,16.66
2023-09-06T00:48:23.802Z,16.69
2023-09-06T00:50:52.999Z,16.69
2023-09-06T00:53:22.194Z,16.70
2023-09-06T00:55:50.013Z,16.71
2023-09-06T00:58:18.937Z,16.68
2023-09-06T01:00:47.147Z,16.62
2023-09-06T01:03:14.560Z,16.58
2023-09-06T01:05:50.820Z,16.56
2023-09-06T01:08:34.870Z,16.54
2023-09-06T01:11:23.342Z,16.49
2023-09-06T01:13:59.844Z,16.52
2023-09-06T01:16:27.952Z,16.46
2023-09-06T01:18:54.768Z,16.42
2023-09-06T01:21:26.494Z,16.35
2023-09-06T01:23:54.401Z,16.32
2023-09-06T01:26:21.264Z,16.25
2023-09-06T01:28:50.524Z,16.09
2023-09-06T01:31:17.958Z,16.06
2023-09-06T01:33:44.730Z,16.00
2023-09-06T01:36:11.336Z,16.00
2023-09-06T01:38:37.915Z,15.99
2023-09-06T01:41:04.762Z,16.04
2023-09-06T01:43:32.505Z,16.02
2023-09-06T01:45:59.314Z,15.95
2023-09-06T01:48:26.155Z,15.93
2023-09-06T01:50:54.897Z,15.95
2023-09-06T01:53:23.626Z,15.93
2023-09-06T01:55:51.568Z,15.84
2023-09-06T01:58:18.416Z,15.88
2023-09-06T02:00:46.591Z,15.87
2023-09-06T02:03:17.001Z,15.85
2023-09-06T02:05:45.058Z,15.83
2023-09-06T02:08:12.491Z,15.83
2023-09-06T02:10:39.078Z,15.83
2023-09-06T02:13:05.663Z,15.84
2023-09-06T02:15:32.408Z,15.74
2023-09-06T02:17:59.205Z,15.85
2023-09-06T02:20:26.672Z,15.84
2023-09-06T02:22:58.616Z,15.82
2023-09-06T02:25:30.119Z,15.82
2023-09-06T02:27:58.159Z,15.83
2023-09-06T02:30:24.970Z,15.83
2023-09-06T02:32:53.120Z,15.84
2023-09-06T02:35:20.260Z,15.83
2023-09-06T02:37:46.989Z,15.76
2023-09-06T02:40:14.828Z,15.80
2023-09-06T02:42:42.160Z,15.78
2023-09-06T02:45:12.328Z,15.76
2023-09-06T02:47:49.127Z,15.71
2023-09-06T02:50:19.740Z,15.61
2023-09-06T02:52:46.598Z,15.60
2023-09-06T02:55:14.409Z,15.56
2023-09-06T02:57:44.847Z,15.56
2023-09-06T03:00:26.368Z,15.52
2023-09-06T03:03:00.525Z,15.51
2023-09-06T03:05:28.361Z,15.51
2023-09-06T03:07:56.169Z,15.52
2023-09-06T03:10:24.321Z,15.47
2023-09-06T03:12:55.630Z,15.52
2023-09-06T03:15:24.055Z,15.50
2023-09-06T03:17:54.518Z,15.50
2023-09-06T03:20:42.176Z,15.41
2023-09-06T03:23:18.241Z,15.46
2023-09-06T03:25:48.409Z,15.45
2023-09-06T03:28:16.145Z,15.43
2023-09-06T03:30:43.573Z,15.37
2023-09-06T03:33:10.672Z,15.37
2023-09-06T03:35:37.994Z,15.38
2023-09-06T03:38:09.572Z,15.37
2023-09-06T03:40:36.710Z,15.36
2023-09-06T03:43:15.831Z,15.32
2023-09-06T03:45:45.235Z,15.26
2023-09-06T03:48:14.124Z,15.23
2023-09-06T03:50:41.198Z,15.19
2023-09-06T03:53:07.956Z,15.23
2023-09-06T03:55:37.992Z,15.16
2023-09-06T03:58:08.245Z,15.09
2023-09-06T04:00:35.994Z,14.96
2023-09-06T04:03:05.146Z,14.84
2023-09-06T04:05:33.488Z,14.78
2023-09-06T04:08:05.174Z,14.74
2023-09-06T04:10:39.589Z,14.76
2023-09-06T04:13:10.874Z,14.78
2023-09-06T04:15:38.601Z,14.77
2023-09-06T04:18:11.793Z,14.76
2023-09-06T04:20:40.434Z,14.71
2023-09-06T04:23:09.167Z,14.71
2023-09-06T04:25:43.496Z,14.66
2023-09-06T04:28:14.528Z,14.57
2023-09-06T04:30:42.297Z,14.49
2023-09-06T04:33:16.236Z,14.43
2023-09-06T04:35:45.129Z,14.32
2023-09-06T04:38:13.705Z,14.29
2023-09-06T04:40:40.327Z,14.27
2023-09-06T04:43:08.559Z,14.26
2023-09-06T04:45:38.603Z,14.24
2023-09-06T04:48:12.411Z,14.25
2023-09-06T04:50:41.434Z,14.26
2023-09-06T04:53:09.475Z,14.24
2023-09-06T04:55:37.168Z,14.22
2023-09-06T04:58:04.661Z,14.25
2023-09-06T05:00:37.692Z,14.30
2023-09-06T05:03:09.644Z,14.34
2023-09-06T05:05:36.887Z,14.37
2023-09-06T05:08:04.398Z,14.40
2023-09-06T05:10:31.714Z,14.48
2023-09-06T05:12:58.764Z,14.54
2023-09-06T05:15:25.549Z,14.60
2023-09-06T05:17:52.134Z,14.67
2023-09-06T05:20:26.437Z,14.74
2023-09-06T05:22:53.694Z,14.83
2023-09-06T05:25:20.428Z,14.93
2023-09-06T05:27:46.933Z,15.01
2023-09-06T05:30:15.540Z,15.09
2023-09-06T05:32:43.507Z,15.18
2023-09-06T05:35:10.211Z,15.27
2023-09-06T05:37:37.256Z,15.36
2023-09-06T05:40:06.276Z,15.46
2023-09-06T05:42:32.857Z,15.64
2023-09-06T05:44:59.472Z,15.78
2023-09-06T05:47:26.236Z,15.93
2023-09-06T05:49:56.797Z,16.16
2023-09-06T05:52:23.740Z,16.32
2023-09-06T05:54:51.463Z,16.45
2023-09-06T05:57:20.265Z,16.53
2023-09-06T05:59:47.045Z,16.58
2023-09-06T06:02:18.667Z,16.51
2023-09-06T06:04:48.162Z,16.48
2023-09-06T06:07:15.144Z,16.41
2023-09-06T06:09:41.982Z,16.37
2023-09-06T06:12:09.433Z,16.32
2023-09-06T06:14:37.771Z,16.35
2023-09-06T06:17:06.604Z,16.38
2023-09-06T06:19:34.232Z,16.45
2023-09-06T06:22:02.742Z,16.45
2023-09-06T06:24:34.668Z,16.52
2023-09-06T06:27:01.591Z,16.59
2023-09-06T06:29:28.359Z,16.65
2023-09-06T06:31:55.396Z,16.71
2023-09-06T06:34:22.305Z,16.72
2023-09-06T06:36:49.025Z,16.83
2023-09-06T06:39:15.747Z,16.81
2023-09-06T06:41:43.418Z,17.00
2023-09-06T06:44:10.488Z,17.08
2023-09-06T06:46:39.960Z,17.11
2023-09-06T06:49:08.353Z,17.19
2023-09-06T06:51:39.474Z,17.25
2023-09-06T06:54:15.260Z,17.28
2023-09-06T06:56:42.138Z,17.38
2023-09-06T06:59:10.029Z,17.44
2023-09-06T07:01:37.427Z,17.51
2023-09-06T07:04:05.714Z,17.55
2023-09-06T07:06:33.368Z,17.57
2023-09-06T07:09:04.418Z,17.70
2023-09-06T07:11:34.546Z,17.80
2023-09-06T07:14:01.469Z,17.88
2023-09-06T07:16:31.575Z,18.11
2023-09-06T07:18:59.514Z,18.30
2023-09-06T07:21:27.349Z,18.55
2023-09-06T07:23:54.098Z,18.71
2023-09-06T07:26:20.966Z,18.92
2023-09-06T07:28:48.189Z,19.04
2023-09-06T07:31:16.015Z,19.23
2023-09-06T07:33:43.733Z,19.38
2023-09-06T07:36:12.137Z,19.48
2023-09-06T07:38:39.009Z,19.53
2023-09-06T07:41:08.333Z,19.69
2023-09-06T07:43:36.009Z,19.86
2023-09-06T07:46:03.670Z,19.99
2023-09-06T07:48:32.181Z,20.11
2023-09-06T07:51:00.352Z,20.23
2023-09-06T07:53:27.411Z,20.36
2023-09-06T07:55:54.789Z,20.49
2023-09-06T07:58:22.076Z,20.68
2023-09-06T08:00:56.331Z,20.79
2023-09-06T08:03:27.393Z,20.93
2023-09-06T08:05:55.772Z,21.03
2023-09-06T08:08:22.687Z,21.12
2023-09-06T08:10:49.785Z,21.26
2023-09-06T08:13:16.610Z,21.41
2023-09-06T08:15:43.415Z,21.56
2023-09-06T08:18:10.352Z,21.70
2023-09-06T08:20:37.264Z,21.90
2023-09-06T08:23:05.187Z,22.07
2023-09-06T08:25:34.757Z,22.26
2023-09-06T08:28:01.568Z,22.51
2023-09-06T08:30:28.715Z,22.64
2023-09-06T08:32:57.077Z,22.82
2023-09-06T08:35:24.810Z,22.92
2023-09-06T08:37:51.658Z,23.12
2023-09-06T08:40:19.815Z,23.32
2023-09-06T08:42:46.651Z,23.56
2023-09-06T08:45:14.196Z,23.83
2023-09-06T08:47:41.025Z,24.31
2023-09-06T08:50:11.833Z,24.74
2023-09-06T08:56:37.643Z,25.33
2023-09-06T08:59:06.803Z,26.18
2023-09-06T09:01:35.851Z,26.41
2023-09-06T09:04:03.148Z,26.51
2023-09-06T09:06:30.565Z,26.77
2023-09-06T09:09:13.757Z,26.82
2023-09-06T09:14:48.865Z,26.60
2023-09-06T09:17:22.541Z,26.57
2023-09-06T09:19:53.649Z,26.52
2023-09-06T09:22:25.392Z,26.42
2023-09-06T09:24:59.708Z,26.42
2023-09-06T09:27:28.629Z,26.47
2023-09-06T09:30:01.085Z,26.70
2023-09-06T09:32:27.982Z,27.05
2023-09-06T09:34:55.608Z,27.49
2023-09-06T09:37:23.758Z,27.85
2023-09-06T09:39:50.860Z,27.91
2023-09-06T09:42:17.686Z,28.12
2023-09-06T09:45:00.017Z,28.38
2023-09-06T09:50:06.058Z,29.00
2023-09-06T09:52:34.109Z,29.28
2023-09-06T09:55:03.567Z,29.60
2023-09-06T09:57:30.947Z,29.88
2023-09-06T09:59:59.143Z,29.92
2023-09-06T10:02:38.957Z,29.99
2023-09-06T10:05:13.387Z,30.23
2023-09-06T10:07:49.636Z,29.99
2023-09-06T10:10:18.868Z,29.90
2023-09-06T10:12:48.677Z,29.81
2023-09-06T10:15:16.028Z,29.95
2023-09-06T10:17:43.586Z,30.16
2023-09-06T10:20:13.842Z,30.35
2023-09-06T10:22:47.342Z,30.16
2023-09-06T10:25:19.693Z,30.16
2023-09-06T10:27:51.346Z,30.24
2023-09-06T10:30:29.901Z,30.20
2023-09-06T10:32:56.798Z,30.18
2023-09-06T10:35:27.082Z,29.99
2023-09-06T10:38:08.557Z,29.77
2023-09-06T10:40:50.746Z,29.57
2023-09-06T10:43:18.816Z,29.39
2023-09-06T10:45:59.535Z,29.48
2023-09-06T10:48:26.458Z,29.64
2023-09-06T10:51:09.712Z,30.06
2023-09-06T10:53:37.280Z,30.22
2023-09-06T10:56:06.420Z,30.42
2023-09-06T10:58:38.094Z,30.67
2023-09-06T11:01:14.115Z,31.07
2023-09-06T11:03:42.606Z,31.20
2023-09-06T11:06:10.592Z,30.95
2023-09-06T11:08:39.976Z,30.66
2023-09-06T11:11:10.153Z,30.46
2023-09-06T11:13:38.740Z,30.38
2023-09-06T11:16:11.496Z,30.31
2023-09-06T11:18:48.970Z,30.43
2023-09-06T11:21:24.279Z,30.72
2023-09-06T11:23:53.087Z,31.00
2023-09-06T11:26:20.580Z,31.18
2023-09-06T11:28:48.701Z,31.24
2023-09-06T11:31:24.940Z,31.22
2023-09-06T11:33:59.492Z,31.03
2023-09-06T11:36:33.292Z,30.53
2023-09-06T11:39:13.115Z,30.09
2023-09-06T11:41:41.408Z,29.71
2023-09-06T11:44:11.157Z,29.53
2023-09-06T11:46:39.807Z,29.38
2023-09-06T11:49:07.902Z,29.32
2023-09-06T11:51:34.856Z,29.25
2023-09-06T11:54:02.265Z,29.22
2023-09-06T11:56:34.558Z,29.25
2023-09-06T11:59:02.359Z,29.25
2023-09-06T12:01:29.934Z,29.33
2023-09-06T12:04:04.074Z,29.41
2023-09-06T12:06:30.908Z,29.48
2023-09-06T12:08:57.743Z,29.50
2023-09-06T12:11:26.050Z,29.48
2023-09-06T12:13:52.916Z,29.47
2023-09-06T12:16:21.117Z,29.60
2023-09-06T12:18:48.178Z,29.93
2023-09-06T12:21:16.336Z,30.14
2023-09-06T12:23:43.502Z,30.34
2023-09-06T12:26:10.266Z,30.42
2023-09-06T12:28:36.982Z,30.56
2023-09-06T12:31:07.810Z,30.90
2023-09-06T12:33:39.377Z,31.07
2023-09-06T12:36:07.861Z,31.14
2023-09-06T12:38:34.891Z,30.94
2023-09-06T12:41:01.944Z,30.76
2023-09-06T12:43:30.449Z,30.52
2023-09-06T12:45:58.550Z,30.33
2023-09-06T12:48:26.833Z,30.20
2023-09-06T12:50:57.263Z,30.14
2023-09-06T12:53:25.131Z,29.99
2023-09-06T12:55:51.969Z,29.73
2023-09-06T12:58:18.991Z,29.55
2023-09-06T13:00:45.969Z,29.52
2023-09-06T13:03:12.894Z,29.55
2023-09-06T13:05:43.387Z,29.55
2023-09-06T13:08:10.796Z,29.51
2023-09-06T13:10:37.610Z,29.51
2023-09-06T13:13:04.476Z,29.40
2023-09-06T13:15:32.578Z,29.22
2023-09-06T13:17:59.320Z,29.14
2023-09-06T13:20:26.053Z,29.10
2023-09-06T13:22:52.788Z,29.10
2023-09-06T13:25:19.744Z,29.15
2023-09-06T13:27:47.752Z,29.18
2023-09-06T13:30:15.184Z,29.19
2023-09-06T13:32:41.988Z,29.17
2023-09-06T13:35:09.084Z,29.18
2023-09-06T13:37:35.933Z,29.13
2023-09-06T13:40:03.236Z,29.06
2023-09-06T13:42:30.119Z,28.88
2023-09-06T13:44:57.522Z,28.90
2023-09-06T13:47:24.406Z,28.87
2023-09-06T13:49:51.883Z,28.86
2023-09-06T13:52:18.986Z,28.85
2023-09-06T13:54:45.958Z,28.83
2023-09-06T13:57:12.730Z,28.81
2023-09-06T13:59:40.221Z,28.78
2023-09-06T14:02:07.190Z,28.70
2023-09-06T14:04:35.732Z,28.77
2023-09-06T14:07:02.969Z,28.72
2023-09-06T14:09:29.838Z,28.69
2023-09-06T14:11:56.764Z,28.70
2023-09-06T14:14:24.679Z,28.71
2023-09-06T14:16:52.072Z,28.70
2023-09-06T14:19:18.830Z,28.69
2023-09-06T14:21:48.479Z,28.70
2023-09-06T14:24:16.235Z,28.68
2023-09-06T14:26:46.281Z,28.61
2023-09-06T14:29:13.787Z,28.64
2023-09-06T14:31:41.339Z,28.62
2023-09-06T14:34:08.702Z,28.58
2023-09-06T14:36:35.784Z,28.64
2023-09-06T14:39:05.025Z,28.66
2023-09-06T14:41:34.041Z,28.69
2023-09-06T14:44:00.996Z,28.68
2023-09-06T14:46:27.853Z,28.69
2023-09-06T14:48:54.709Z,28.64
2023-09-06T14:51:21.590Z,28.64
2023-09-06T14:53:48.349Z,28.64
2023-09-06T14:56:16.401Z,28.62
2023-09-06T14:58:46.953Z,28.57
2023-09-06T15:01:13.693Z,28.61
2023-09-06T15:03:40.635Z,28.62
2023-09-06T15:06:08.716Z,28.62
2023-09-06T15:08:35.858Z,28.59
2023-09-06T15:11:03.046Z,28.55
2023-09-06T15:13:29.822Z,28.53
2023-09-06T15:15:56.745Z,28.46
2023-09-06T15:18:24.494Z,28.35
2023-09-06T15:20:52.244Z,28.32
2023-09-06T15:23:19.326Z,28.33
2023-09-06T15:25:46.326Z,28.33
2023-09-06T15:28:13.327Z,28.37
2023-09-06T15:30:40.410Z,28.36
2023-09-06T15:33:07.456Z,28.32
2023-09-06T15:35:34.391Z,28.35
2023-09-06T15:38:07.765Z,28.35
2023-09-06T15:40:34.757Z,28.30
2023-09-06T15:43:03.053Z,28.30
2023-09-06T15:45:29.837Z,28.25
2023-09-06T15:47:59.977Z,28.25
2023-09-06T15:50:29.355Z,28.26
2023-09-06T15:52:56.576Z,28.19
2023-09-06T15:55:23.760Z,28.14
2023-09-06T15:57:51.186Z,28.10
2023-09-06T16:00:30.763Z,28.05
2023-09-06T16:02:59.376Z,28.03
2023-09-06T16:05:26.621Z,27.98
2023-09-06T16:07:54.571Z,28.01
2023-09-06T16:10:21.503Z,28.02
2023-09-06T16:12:49.732Z,27.93
2023-09-06T16:15:17.679Z,27.97
2023-09-06T16:17:46.142Z,27.95
2023-09-06T16:20:13.648Z,27.91
2023-09-06T16:22:40.476Z,27.89
2023-09-06T16:25:08.960Z,27.80
2023-09-06T16:27:36.226Z,27.74
2023-09-06T16:30:08.787Z,27.71
2023-09-06T16:32:35.746Z,27.64
2023-09-06T16:35:08.411Z,27.50
2023-09-06T16:37:39.435Z,27.42
2023-09-06T16:40:11.476Z,27.31
2023-09-06T16:42:44.878Z,27.20
2023-09-06T16:45:20.584Z,27.07
2023-09-06T16:47:50.629Z,26.96
2023-09-06T16:50:18.537Z,26.96
2023-09-06T16:52:46.287Z,26.88
2023-09-06T16:55:13.322Z,26.78
2023-09-06T16:57:40.292Z,26.66
2023-09-06T17:00:09.176Z,26.53
2023-09-06T17:02:36.353Z,26.42
2023-09-06T17:05:05.662Z,26.32
2023-09-06T17:08:20.430Z,26.24
2023-09-06T17:10:47.170Z,26.00
2023-09-06T17:13:14.126Z,26.05
2023-09-06T17:15:40.958Z,25.91
2023-09-06T17:18:08.167Z,25.88
2023-09-06T17:20:36.264Z,25.76
2023-09-06T17:23:03.067Z,25.64
2023-09-06T17:25:31.529Z,25.57
2023-09-06T17:27:58.317Z,25.47
2023-09-06T17:30:25.661Z,25.38
2023-09-06T17:33:15.537Z,25.26
2023-09-06T17:35:44.486Z,25.16
2023-09-06T17:38:14.056Z,25.06
2023-09-06T17:40:46.218Z,24.96
2023-09-06T17:43:14.500Z,24.86
2023-09-06T17:45:41.895Z,24.78
2023-09-06T17:48:26.567Z,24.69
2023-09-06T17:50:55.432Z,24.62
2023-09-06T17:53:26.566Z,24.57
2023-09-06T17:56:03.211Z,24.45
2023-09-06T17:58:35.824Z,24.43
2023-09-06T18:01:07.920Z,24.36
2023-09-06T18:03:39.315Z,24.27
2023-09-06T18:06:12.712Z,24.17
2023-09-06T18:08:40.765Z,24.10
2023-09-06T18:11:10.386Z,24.01
2023-09-06T18:13:40.475Z,23.96
2023-09-06T18:16:08.117Z,23.91
2023-09-06T18:18:35.090Z,23.84
2023-09-06T18:21:06.487Z,23.77
2023-09-06T18:23:34.241Z,23.70
2023-09-06T18:26:01.384Z,23.62
2023-09-06T18:28:28.733Z,23.57
2023-09-06T18:30:55.907Z,23.43
2023-09-06T18:33:25.736Z,23.41
2023-09-06T18:35:54.169Z,23.29
2023-09-06T18:38:22.214Z,23.27
2023-09-06T18:40:50.342Z,23.19
2023-09-06T18:43:18.563Z,23.18
2023-09-06T18:45:46.491Z,23.15
2023-09-06T18:48:18.074Z,23.09
2023-09-06T18:50:48.326Z,23.06
2023-09-06T18:53:15.046Z,22.99
2023-09-06T18:55:44.386Z,22.95
2023-09-06T18:58:11.938Z,22.91
2023-09-06T19:00:40.377Z,22.88
2023-09-06T19:03:07.853Z,22.75
2023-09-06T19:05:35.528Z,22.74
2023-09-06T19:08:02.327Z,22.69
2023-09-06T19:10:28.925Z,22.62
2023-09-06T19:12:55.731Z,22.57
2023-09-06T19:15:23.152Z,22.40
2023-09-06T19:17:50.818Z,22.46
2023-09-06T19:20:19.556Z,22.41
2023-09-06T19:22:47.749Z,22.34
2023-09-06T19:25:14.521Z,22.30
2023-09-06T19:27:41.728Z,22.21
2023-09-06T19:30:09.632Z,22.17
2023-09-06T19:32:38.152Z,22.12
2023-09-06T19:35:04.895Z,22.07
2023-09-06T19:37:31.465Z,22.00
2023-09-06T19:39:58.801Z,21.95
2023-09-06T19:42:25.358Z,21.87
2023-09-06T19:44:53.340Z,21.77
2023-09-06T19:47:20.812Z,21.73
2023-09-06T19:49:48.825Z,21.71
2023-09-06T19:52:17.601Z,21.68
2023-09-06T19:54:44.386Z,21.57
2023-09-06T19:57:11.110Z,21.55
2023-09-06T19:59:38.496Z,21.52
2023-09-06T20:02:05.381Z,21.46
2023-09-06T20:04:32.443Z,21.33
2023-09-06T20:06:59.717Z,21.35
2023-09-06T20:09:29.191Z,21.30
2023-09-06T20:11:55.961Z,21.22
2023-09-06T20:14:24.550Z,21.22
2023-09-06T20:16:51.348Z,21.17
2023-09-06T20:19:17.870Z,21.14
2023-09-06T20:21:44.443Z,21.08
2023-09-06T20:24:11.105Z,21.08
2023-09-06T20:26:38.131Z,21.02
2023-09-06T20:29:09.410Z,21.01
2023-09-06T20:31:36.514Z,20.95
2023-09-06T20:34:03.222Z,20.86
2023-09-06T20:36:29.819Z,20.86
2023-09-06T20:38:56.371Z,20.76
2023-09-06T20:41:22.980Z,20.70
2023-09-06T20:43:49.536Z,20.58
2023-09-06T20:46:16.145Z,20.54
2023-09-06T20:48:46.592Z,20.47
2023-09-06T20:51:14.875Z,20.47
2023-09-06T20:53:44.078Z,20.43
2023-09-06T20:56:11.275Z,20.33
2023-09-06T20:58:38.692Z,20.37
2023-09-06T21:01:22.304Z,20.35
2023-09-06T21:03:49.304Z,20.30
2023-09-06T21:06:16.034Z,20.29
2023-09-06T21:08:43.055Z,20.24
2023-09-06T21:11:09.847Z,20.21
2023-09-06T21:13:36.458Z,20.17
2023-09-06T21:16:03.449Z,20.16
2023-09-06T21:18:31.115Z,20.11
2023-09-06T21:20:58.401Z,20.09
2023-09-06T21:23:25.312Z,20.01
2023-09-06T21:25:51.923Z,20.04
2023-09-06T21:28:18.507Z,20.01
2023-09-06T21:30:47.028Z,19.95
2023-09-06T21:33:14.654Z,19.87
2023-09-06T21:35:43.017Z,19.90
2023-09-06T21:38:09.715Z,19.88
2023-09-06T21:40:44.320Z,19.83
2023-09-06T21:43:18.433Z,19.78
2023-09-06T21:45:45.376Z,19.65
2023-09-06T21:48:12.529Z,19.70
2023-09-06T21:50:41.728Z,19.68
2023-09-06T21:53:08.538Z,19.64
2023-09-06T21:55:35.249Z,19.56
2023-09-06T21:58:09.577Z,19.55
2023-09-06T22:00:37.517Z,19.43
2023-09-06T22:03:04.628Z,19.42
2023-09-06T22:05:31.367Z,19.37
2023-09-06T22:07:58.042Z,19.36
2023-09-06T22:10:24.797Z,19.31
2023-09-06T22:12:51.906Z,19.22
2023-09-06T22:15:18.851Z,19.17
2023-09-06T22:17:45.668Z,19.11
2023-09-06T22:20:12.537Z,19.05
2023-09-06T22:22:39.330Z,19.04
2023-09-06T22:25:06.949Z,19.01
2023-09-06T22:27:34.201Z,18.99
2023-09-06T22:30:01.266Z,18.95
2023-09-06T22:32:28.440Z,18.93
2023-09-06T22:34:56.959Z,18.87
2023-09-06T22:37:24.726Z,18.89
2023-09-06T22:39:51.662Z,18.83
2023-09-06T22:42:18.505Z,18.76
2023-09-06T22:44:46.128Z,18.80
2023-09-06T22:47:13.030Z,18.78
2023-09-06T22:49:39.947Z,18.67
2023-09-06T22:52:07.894Z,18.74
2023-09-06T22:54:39.716Z,18.71
2023-09-06T22:57:12.486Z,18.63
2023-09-06T22:59:39.219Z,18.61
2023-09-06T23:02:05.962Z,18.63
2023-09-06T23:04:33.525Z,18.61
2023-09-06T23:07:01.089Z,18.55
2023-09-06T23:09:28.025Z,18.57
2023-09-06T23:11:57.326Z,18.55
2023-09-06T23:14:27.400Z,18.51
2023-09-06T23:16:54.637Z,18.47
2023-09-06T23:19:27.892Z,18.43
2023-09-06T23:21:59.437Z,18.41
2023-09-06T23:24:28.709Z,18.38
2023-09-06T23:27:00.125Z,18.37
2023-09-06T23:29:35.738Z,18.37
2023-09-06T23:32:05.833Z,18.34
2023-09-06T23:34:35.374Z,18.35
2023-09-06T23:37:05.418Z,18.33
2023-09-06T23:39:34.339Z,18.27
2023-09-06T23:42:10.616Z,18.29
2023-09-06T23:44:41.935Z,18.31
2023-09-06T23:47:08.817Z,18.28
2023-09-06T23:49:37.196Z,18.28
2023-09-06T23:52:04.449Z,18.27
2023-09-06T23:54:44.732Z,18.22
2023-09-06T23:57:13.791Z,18.23
2023-09-06T23:59:40.486Z,18.17
